JBU553 KFLL-TJSJ
Flight info
| Callsign | JBU553 |
|---|---|
| Flight time | 2h 10m |
| Altitude | 35000 |
| Route | SNAPR2 SUMAC Y421 HAGIT Y290 BEANO BEANO3 |
| Aircraft | A320/M-SDE3FGHIRWY/LB1 |
Departure
| Time | 2026-05-03 21:54 |
|---|---|
| Airport | Fort Lauderdale Hollywood International Airport (KFLL) |
Arrival
| Time | 2026-05-04 00:05 |
|---|---|
| Airport | Luis Munoz Marin International Airport (TJSJ) |
| Time | Latitude | Longitude | Altitude | Speed | Heading |
|---|---|---|---|---|---|
| 2026-05-03 20:52 | 26.06904 | -80.14584 | 18 ft | 0 kts | 35° |
| 2026-05-03 21:09 | 26.06902 | -80.14585 | 18 ft | 3 kts | 35° |
| 2026-05-03 21:09 | 26.06881 | -80.14603 | 16 ft | 4 kts | 47° |
| 2026-05-03 21:09 | 26.06867 | -80.14627 | 18 ft | 4 kts | 83° |
| 2026-05-03 21:09 | 26.06870 | -80.14645 | 17 ft | 0 kts | 135° |
| 2026-05-03 21:15 | 26.06867 | -80.14642 | 16 ft | 2 kts | 135° |
| 2026-05-03 21:16 | 26.06862 | -80.14636 | 16 ft | 1 kts | 135° |
| 2026-05-03 21:16 | 26.06857 | -80.14631 | 18 ft | 0 kts | 136° |
| 2026-05-03 21:26 | 26.06856 | -80.14630 | 16 ft | 0 kts | 136° |
| 2026-05-03 21:26 | 26.06854 | -80.14627 | 16 ft | 1 kts | 135° |
| 2026-05-03 21:26 | 26.06847 | -80.14620 | 16 ft | 3 kts | 135° |
| 2026-05-03 21:27 | 26.06815 | -80.14590 | 16 ft | 9 kts | 154° |
| 2026-05-03 21:27 | 26.06763 | -80.14626 | 15 ft | 11 kts | 267° |
| 2026-05-03 21:27 | 26.06766 | -80.14728 | 15 ft | 13 kts | 273° |
| 2026-05-03 21:27 | 26.06768 | -80.14836 | 15 ft | 15 kts | 270° |
| 2026-05-03 21:28 | 26.06768 | -80.14934 | 15 ft | 11 kts | 270° |
| 2026-05-03 21:28 | 26.06768 | -80.15007 | 16 ft | 4 kts | 270° |
| 2026-05-03 21:28 | 26.06767 | -80.15060 | 16 ft | 9 kts | 269° |
| 2026-05-03 21:28 | 26.06794 | -80.15130 | 16 ft | 10 kts | 331° |
| 2026-05-03 21:29 | 26.06851 | -80.15129 | 16 ft | 11 kts | 3° |
| 2026-05-03 21:29 | 26.06945 | -80.15130 | 16 ft | 16 kts | 0° |
| 2026-05-03 21:29 | 26.07046 | -80.15129 | 16 ft | 14 kts | 360° |
| 2026-05-03 21:29 | 26.07148 | -80.15128 | 16 ft | 13 kts | 0° |
| 2026-05-03 21:30 | 26.07236 | -80.15127 | 16 ft | 0 kts | 0° |
| 2026-05-03 21:33 | 26.07245 | -80.15127 | 16 ft | 1 kts | 0° |
| 2026-05-03 21:33 | 26.07253 | -80.15127 | 16 ft | 2 kts | 0° |
| 2026-05-03 21:34 | 26.07289 | -80.15127 | 16 ft | 8 kts | 0° |
| 2026-05-03 21:34 | 26.07325 | -80.15126 | 16 ft | 0 kts | 0° |
| 2026-05-03 21:36 | 26.07326 | -80.15126 | 16 ft | 1 kts | 0° |
| 2026-05-03 21:36 | 26.07355 | -80.15126 | 16 ft | 7 kts | 0° |
| 2026-05-03 21:36 | 26.07408 | -80.15126 | 16 ft | 7 kts | 0° |
| 2026-05-03 21:37 | 26.07421 | -80.15126 | 16 ft | 0 kts | 360° |
| 2026-05-03 21:37 | 26.07427 | -80.15126 | 16 ft | 1 kts | 360° |
| 2026-05-03 21:37 | 26.07429 | -80.15126 | 16 ft | 0 kts | 360° |
| 2026-05-03 21:46 | 26.07443 | -80.15126 | 16 ft | 7 kts | 356° |
| 2026-05-03 21:46 | 26.07489 | -80.15166 | 17 ft | 9 kts | 290° |
| 2026-05-03 21:46 | 26.07489 | -80.15240 | 16 ft | 10 kts | 270° |
| 2026-05-03 21:47 | 26.07457 | -80.15300 | 16 ft | 10 kts | 195° |
| 2026-05-03 21:47 | 26.07410 | -80.15300 | 17 ft | 7 kts | 179° |
| 2026-05-03 21:47 | 26.07340 | -80.15300 | 16 ft | 13 kts | 180° |
| 2026-05-03 21:47 | 26.07242 | -80.15300 | 16 ft | 14 kts | 181° |
| 2026-05-03 21:48 | 26.07140 | -80.15302 | 16 ft | 15 kts | 180° |
| 2026-05-03 21:48 | 26.07044 | -80.15303 | 16 ft | 12 kts | 180° |
| 2026-05-03 21:48 | 26.06954 | -80.15303 | 16 ft | 14 kts | 179° |
| 2026-05-03 21:48 | 26.06851 | -80.15302 | 16 ft | 16 kts | 178° |
| 2026-05-03 21:49 | 26.06800 | -80.15302 | 16 ft | 7 kts | 189° |
| 2026-05-03 21:49 | 26.06760 | -80.15359 | 16 ft | 12 kts | 245° |
| 2026-05-03 21:49 | 26.06701 | -80.15416 | 16 ft | 12 kts | 241° |
| 2026-05-03 21:49 | 26.06695 | -80.15467 | 16 ft | 7 kts | 268° |
| 2026-05-03 21:50 | 26.06695 | -80.15527 | 16 ft | 9 kts | 269° |
| 2026-05-03 21:50 | 26.06695 | -80.15606 | 16 ft | 11 kts | 270° |
| 2026-05-03 21:50 | 26.06698 | -80.15702 | 16 ft | 9 kts | 271° |
| 2026-05-03 21:50 | 26.06699 | -80.15768 | 16 ft | 7 kts | 271° |
| 2026-05-03 21:51 | 26.06693 | -80.15801 | 16 ft | 2 kts | 239° |
| 2026-05-03 21:51 | 26.06688 | -80.15807 | 16 ft | 0 kts | 229° |
| 2026-05-03 21:51 | 26.06687 | -80.15807 | 16 ft | 1 kts | 229° |
| 2026-05-03 21:51 | 26.06684 | -80.15811 | 17 ft | 0 kts | 223° |
| 2026-05-03 21:52 | 26.06683 | -80.15812 | 18 ft | 1 kts | 221° |
| 2026-05-03 21:52 | 26.06682 | -80.15812 | 18 ft | 0 kts | 219° |
| 2026-05-03 21:52 | 26.06681 | -80.15813 | 18 ft | 1 kts | 214° |
| 2026-05-03 21:52 | 26.06660 | -80.15819 | 16 ft | 7 kts | 190° |
| 2026-05-03 21:53 | 26.06613 | -80.15822 | 17 ft | 4 kts | 182° |
| 2026-05-03 21:53 | 26.06590 | -80.15802 | 18 ft | 4 kts | 107° |
| 2026-05-03 21:53 | 26.06590 | -80.15790 | 18 ft | 0 kts | 92° |
| 2026-05-03 21:54 | 26.06590 | -80.15785 | 19 ft | 5 kts | 92° |
| 2026-05-03 21:54 | 26.06587 | -80.15454 | 23 ft | 88 kts | 90° |
| 2026-05-03 21:54 | 26.06585 | -80.14474 | 49 ft | 160 kts | 88° |
| 2026-05-03 21:54 | 26.06582 | -80.13198 | 731 ft | 168 kts | 87° |
| 2026-05-03 21:55 | 26.06619 | -80.11834 | 1493 ft | 183 kts | 87° |
| 2026-05-03 21:55 | 26.06659 | -80.10371 | 1988 ft | 197 kts | 88° |
| 2026-05-03 21:55 | 26.06667 | -80.08778 | 2232 ft | 222 kts | 90° |
| 2026-05-03 21:55 | 26.06650 | -80.06947 | 2492 ft | 250 kts | 91° |
| 2026-05-03 21:56 | 26.06649 | -80.04928 | 3014 ft | 268 kts | 89° |
| 2026-05-03 21:56 | 26.06674 | -80.02822 | 3708 ft | 278 kts | 89° |
| 2026-05-03 21:56 | 26.06704 | -80.00651 | 3935 ft | 281 kts | 89° |
| 2026-05-03 21:56 | 26.06715 | -79.98479 | 3998 ft | 282 kts | 90° |
| 2026-05-03 21:57 | 26.06704 | -79.96322 | 4005 ft | 282 kts | 91° |
| 2026-05-03 21:57 | 26.06683 | -79.94140 | 4004 ft | 281 kts | 91° |
| 2026-05-03 21:57 | 26.06657 | -79.91964 | 4004 ft | 282 kts | 91° |
| 2026-05-03 21:57 | 26.06631 | -79.89789 | 4002 ft | 281 kts | 91° |
| 2026-05-03 21:58 | 26.06606 | -79.87620 | 4003 ft | 282 kts | 91° |
| 2026-05-03 21:58 | 26.06583 | -79.85443 | 4001 ft | 281 kts | 91° |
| 2026-05-03 21:58 | 26.06543 | -79.83273 | 4002 ft | 282 kts | 95° |
| 2026-05-03 21:58 | 26.06231 | -79.81085 | 4552 ft | 287 kts | 102° |
| 2026-05-03 21:59 | 26.05879 | -79.78893 | 5504 ft | 289 kts | 101° |
| 2026-05-03 21:59 | 26.05536 | -79.76675 | 6386 ft | 294 kts | 101° |
| 2026-05-03 21:59 | 26.05190 | -79.74408 | 7185 ft | 299 kts | 101° |
| 2026-05-03 21:59 | 26.04838 | -79.72111 | 7987 ft | 304 kts | 101° |
| 2026-05-03 22:00 | 26.04479 | -79.69785 | 8786 ft | 308 kts | 101° |
| 2026-05-03 22:00 | 26.04114 | -79.67418 | 9573 ft | 313 kts | 101° |
| 2026-05-03 22:00 | 26.03738 | -79.65008 | 10253 ft | 321 kts | 102° |
| 2026-05-03 22:00 | 26.03259 | -79.62487 | 10491 ft | 344 kts | 105° |
| 2026-05-03 22:01 | 26.02669 | -79.59899 | 10944 ft | 355 kts | 107° |
| 2026-05-03 22:01 | 26.02036 | -79.57303 | 11576 ft | 359 kts | 108° |
| 2026-05-03 22:01 | 26.01378 | -79.54644 | 12242 ft | 363 kts | 108° |
| 2026-05-03 22:01 | 26.00706 | -79.51914 | 12916 ft | 367 kts | 108° |
| 2026-05-03 22:02 | 26.00037 | -79.49147 | 13592 ft | 371 kts | 108° |
| 2026-05-03 22:02 | 25.99375 | -79.46373 | 14194 ft | 375 kts | 107° |
| 2026-05-03 22:02 | 25.98718 | -79.43606 | 14723 ft | 379 kts | 107° |
| 2026-05-03 22:02 | 25.98049 | -79.40776 | 15289 ft | 382 kts | 107° |
| 2026-05-03 22:03 | 25.97317 | -79.37911 | 15839 ft | 385 kts | 113° |
| 2026-05-03 22:03 | 25.96360 | -79.35115 | 16402 ft | 388 kts | 114° |
| 2026-05-03 22:03 | 25.95395 | -79.32334 | 16969 ft | 392 kts | 114° |
| 2026-05-03 22:03 | 25.94398 | -79.29459 | 17552 ft | 395 kts | 114° |
| 2026-05-03 22:04 | 25.93404 | -79.26596 | 18123 ft | 399 kts | 114° |
| 2026-05-03 22:04 | 25.92414 | -79.23752 | 18630 ft | 403 kts | 115° |
| 2026-05-03 22:04 | 25.91392 | -79.20824 | 19124 ft | 407 kts | 115° |
| 2026-05-03 22:04 | 25.90362 | -79.17874 | 19623 ft | 410 kts | 115° |
| 2026-05-03 22:05 | 25.89323 | -79.14901 | 20119 ft | 414 kts | 115° |
| 2026-05-03 22:05 | 25.88281 | -79.11922 | 20616 ft | 418 kts | 115° |
| 2026-05-03 22:05 | 25.87225 | -79.08907 | 21108 ft | 422 kts | 115° |
| 2026-05-03 22:05 | 25.86157 | -79.05857 | 21595 ft | 425 kts | 115° |
| 2026-05-03 22:06 | 25.85081 | -79.02779 | 22090 ft | 429 kts | 115° |
| 2026-05-03 22:06 | 25.83993 | -78.99671 | 22578 ft | 432 kts | 115° |
| 2026-05-03 22:06 | 25.82895 | -78.96527 | 23044 ft | 436 kts | 115° |
| 2026-05-03 22:06 | 25.81803 | -78.93404 | 23507 ft | 440 kts | 115° |
| 2026-05-03 22:07 | 25.80680 | -78.90201 | 23915 ft | 444 kts | 116° |
| 2026-05-03 22:07 | 25.79557 | -78.87007 | 24309 ft | 447 kts | 116° |
| 2026-05-03 22:07 | 25.78421 | -78.83780 | 24713 ft | 450 kts | 116° |
| 2026-05-03 22:07 | 25.77275 | -78.80531 | 25100 ft | 453 kts | 116° |
| 2026-05-03 22:08 | 25.76125 | -78.77271 | 25481 ft | 456 kts | 116° |
| 2026-05-03 22:08 | 25.74966 | -78.73986 | 25869 ft | 458 kts | 116° |
| 2026-05-03 22:08 | 25.73588 | -78.70818 | 26238 ft | 455 kts | 126° |
| 2026-05-03 22:08 | 25.71875 | -78.67914 | 26603 ft | 455 kts | 130° |
| 2026-05-03 22:09 | 25.70090 | -78.65016 | 26980 ft | 457 kts | 130° |
| 2026-05-03 22:09 | 25.68288 | -78.62089 | 27346 ft | 460 kts | 130° |
| 2026-05-03 22:09 | 25.66475 | -78.59143 | 27709 ft | 462 kts | 130° |
| 2026-05-03 22:10 | 25.62831 | -78.53211 | 28414 ft | 467 kts | 130° |
| 2026-05-03 22:10 | 25.61000 | -78.50230 | 28773 ft | 470 kts | 130° |
| 2026-05-03 22:10 | 25.59175 | -78.47209 | 29121 ft | 475 kts | 126° |
| 2026-05-03 22:10 | 25.57647 | -78.43935 | 29474 ft | 484 kts | 117° |
| 2026-05-03 22:11 | 25.56565 | -78.40427 | 29825 ft | 491 kts | 109° |
| 2026-05-03 22:11 | 25.55643 | -78.36774 | 30162 ft | 494 kts | 109° |
| 2026-05-03 22:11 | 25.54709 | -78.33096 | 30445 ft | 496 kts | 109° |
| 2026-05-03 22:11 | 25.53769 | -78.29409 | 30735 ft | 499 kts | 110° |
| 2026-05-03 22:12 | 25.52820 | -78.25711 | 31028 ft | 501 kts | 110° |
| 2026-05-03 22:12 | 25.51863 | -78.21996 | 31317 ft | 503 kts | 110° |
| 2026-05-03 22:12 | 25.50900 | -78.18261 | 31618 ft | 505 kts | 110° |
| 2026-05-03 22:12 | 25.49940 | -78.14538 | 32025 ft | 504 kts | 110° |
| 2026-05-03 22:13 | 25.48979 | -78.10808 | 32441 ft | 503 kts | 110° |
| 2026-05-03 22:13 | 25.48021 | -78.07078 | 32856 ft | 503 kts | 110° |
| 2026-05-03 22:13 | 25.47067 | -78.03362 | 33262 ft | 502 kts | 110° |
| 2026-05-03 22:13 | 25.46113 | -77.99640 | 33671 ft | 502 kts | 110° |
| 2026-05-03 22:14 | 25.45159 | -77.95928 | 34056 ft | 501 kts | 110° |
| 2026-05-03 22:14 | 25.44199 | -77.92209 | 34265 ft | 505 kts | 110° |
| 2026-05-03 22:14 | 25.43228 | -77.88471 | 34529 ft | 506 kts | 110° |
| 2026-05-03 22:14 | 25.42251 | -77.84727 | 34818 ft | 507 kts | 110° |
| 2026-05-03 22:15 | 25.41271 | -77.80975 | 34986 ft | 508 kts | 110° |
| 2026-05-03 22:15 | 25.39345 | -77.73580 | 35031 ft | 500 kts | 110° |
| 2026-05-03 22:16 | 25.37424 | -77.66184 | 35034 ft | 499 kts | 110° |
| 2026-05-03 22:16 | 25.35503 | -77.58811 | 35018 ft | 499 kts | 110° |
| 2026-05-03 22:17 | 25.33573 | -77.51447 | 35030 ft | 498 kts | 110° |
| 2026-05-03 22:17 | 25.31642 | -77.44094 | 35033 ft | 498 kts | 110° |
| 2026-05-03 22:18 | 25.29630 | -77.36767 | 35040 ft | 495 kts | 116° |
| 2026-05-03 22:18 | 25.26403 | -77.30173 | 35037 ft | 485 kts | 129° |
| 2026-05-03 22:19 | 25.22756 | -77.23939 | 35038 ft | 486 kts | 128° |
| 2026-05-03 22:19 | 25.19106 | -77.17657 | 35039 ft | 486 kts | 128° |
| 2026-05-03 22:20 | 25.15444 | -77.11364 | 35043 ft | 487 kts | 128° |
| 2026-05-03 22:20 | 25.11771 | -77.05083 | 35039 ft | 487 kts | 129° |
| 2026-05-03 22:21 | 25.08080 | -76.98788 | 35047 ft | 487 kts | 129° |
| 2026-05-03 22:21 | 25.04426 | -76.92565 | 35037 ft | 486 kts | 128° |
| 2026-05-03 22:22 | 25.00752 | -76.86310 | 35043 ft | 486 kts | 128° |
| 2026-05-03 22:22 | 24.97084 | -76.80059 | 35045 ft | 485 kts | 128° |
| 2026-05-03 22:23 | 24.93414 | -76.73815 | 35047 ft | 485 kts | 128° |
| 2026-05-03 22:23 | 24.89723 | -76.67562 | 35048 ft | 485 kts | 128° |
| 2026-05-03 22:24 | 24.86036 | -76.61326 | 35048 ft | 485 kts | 128° |
| 2026-05-03 22:24 | 24.82353 | -76.55089 | 35048 ft | 485 kts | 128° |
| 2026-05-03 22:25 | 24.78701 | -76.48903 | 35037 ft | 485 kts | 128° |
| 2026-05-03 22:25 | 24.75017 | -76.42678 | 35041 ft | 485 kts | 128° |
| 2026-05-03 22:26 | 24.71318 | -76.36447 | 35045 ft | 485 kts | 129° |
| 2026-05-03 22:26 | 24.67619 | -76.30240 | 35034 ft | 485 kts | 128° |
| 2026-05-03 22:27 | 24.63919 | -76.24026 | 35044 ft | 485 kts | 128° |
| 2026-05-03 22:27 | 24.60246 | -76.17855 | 35050 ft | 484 kts | 128° |
| 2026-05-03 22:28 | 24.56563 | -76.11664 | 35046 ft | 484 kts | 127° |
| 2026-05-03 22:28 | 24.52997 | -76.05359 | 35049 ft | 485 kts | 126° |
| 2026-05-03 22:29 | 24.50112 | -76.00098 | 35053 ft | 484 kts | 126° |
| 2026-05-03 22:29 | 24.46042 | -75.92753 | 35053 ft | 484 kts | 126° |
| 2026-05-03 22:30 | 24.42512 | -75.86456 | 35054 ft | 483 kts | 126° |
| 2026-05-03 22:30 | 24.39572 | -75.81236 | 35054 ft | 483 kts | 126° |
| 2026-05-03 22:31 | 24.36027 | -75.74942 | 35039 ft | 484 kts | 126° |
| 2026-05-03 22:31 | 24.32506 | -75.68689 | 35029 ft | 484 kts | 126° |
| 2026-05-03 22:32 | 24.28952 | -75.62379 | 35034 ft | 484 kts | 126° |
| 2026-05-03 22:32 | 24.25410 | -75.56095 | 35044 ft | 484 kts | 126° |
| 2026-05-03 22:33 | 24.21900 | -75.49859 | 35050 ft | 484 kts | 126° |
| 2026-05-03 22:33 | 24.18352 | -75.43598 | 35053 ft | 483 kts | 126° |
| 2026-05-03 22:34 | 24.14797 | -75.37357 | 35054 ft | 483 kts | 126° |
| 2026-05-03 22:34 | 24.11248 | -75.31111 | 35056 ft | 483 kts | 126° |
| 2026-05-03 22:35 | 24.07704 | -75.24869 | 35055 ft | 482 kts | 126° |
| 2026-05-03 22:35 | 24.04167 | -75.18642 | 35054 ft | 482 kts | 126° |
| 2026-05-03 22:36 | 24.00627 | -75.12411 | 35054 ft | 482 kts | 126° |
| 2026-05-03 22:36 | 23.97078 | -75.06190 | 35053 ft | 482 kts | 127° |
| 2026-05-03 22:37 | 23.93525 | -74.99980 | 35061 ft | 481 kts | 127° |
| 2026-05-03 22:37 | 23.89980 | -74.93800 | 35060 ft | 480 kts | 127° |
| 2026-05-03 22:38 | 23.86439 | -74.87615 | 35064 ft | 479 kts | 127° |
| 2026-05-03 22:38 | 23.82931 | -74.81480 | 35064 ft | 479 kts | 126° |
| 2026-05-03 22:39 | 23.79406 | -74.75320 | 35056 ft | 479 kts | 127° |
| 2026-05-03 22:39 | 23.75872 | -74.69163 | 35049 ft | 478 kts | 127° |
| 2026-05-03 22:40 | 23.72326 | -74.63014 | 35056 ft | 478 kts | 127° |
| 2026-05-03 22:40 | 23.68784 | -74.56876 | 35051 ft | 478 kts | 127° |
| 2026-05-03 22:41 | 23.65246 | -74.50738 | 35052 ft | 478 kts | 127° |
| 2026-05-03 22:41 | 23.61698 | -74.44597 | 35051 ft | 478 kts | 127° |
| 2026-05-03 22:42 | 23.58154 | -74.38463 | 35044 ft | 478 kts | 127° |
| 2026-05-03 22:42 | 23.54613 | -74.32338 | 35044 ft | 477 kts | 126° |
| 2026-05-03 22:43 | 23.51069 | -74.26221 | 35047 ft | 477 kts | 126° |
| 2026-05-03 22:43 | 23.47546 | -74.20148 | 35057 ft | 477 kts | 126° |
| 2026-05-03 22:44 | 23.43997 | -74.14047 | 35054 ft | 477 kts | 127° |
| 2026-05-03 22:44 | 23.40444 | -74.07942 | 35058 ft | 477 kts | 127° |
| 2026-05-03 22:45 | 23.36899 | -74.01846 | 35058 ft | 477 kts | 127° |
| 2026-05-03 22:45 | 23.33350 | -73.95757 | 35061 ft | 476 kts | 126° |
| 2026-05-03 22:46 | 23.29805 | -73.89675 | 35059 ft | 476 kts | 126° |
| 2026-05-03 22:46 | 23.26254 | -73.83593 | 35057 ft | 476 kts | 126° |
| 2026-05-03 22:47 | 23.22700 | -73.77530 | 35057 ft | 475 kts | 127° |
| 2026-05-03 22:47 | 23.19148 | -73.71472 | 35047 ft | 475 kts | 126° |
| 2026-05-03 22:48 | 23.15597 | -73.65416 | 35055 ft | 474 kts | 126° |
| 2026-05-03 22:48 | 23.12056 | -73.59384 | 35060 ft | 473 kts | 126° |
| 2026-05-03 22:49 | 23.08515 | -73.53362 | 35062 ft | 473 kts | 126° |
| 2026-05-03 22:49 | 23.05003 | -73.47388 | 35065 ft | 472 kts | 126° |
| 2026-05-03 22:50 | 23.01472 | -73.41385 | 35063 ft | 472 kts | 126° |
| 2026-05-03 22:50 | 22.97934 | -73.35393 | 35063 ft | 471 kts | 126° |
| 2026-05-03 22:51 | 22.94386 | -73.29403 | 35056 ft | 471 kts | 126° |
| 2026-05-03 22:51 | 22.90850 | -73.23424 | 35063 ft | 471 kts | 126° |
| 2026-05-03 22:52 | 22.87322 | -73.17445 | 35065 ft | 470 kts | 126° |
| 2026-05-03 22:52 | 22.83789 | -73.11481 | 35066 ft | 470 kts | 126° |
| 2026-05-03 22:53 | 22.80255 | -73.05535 | 35060 ft | 469 kts | 126° |
| 2026-05-03 22:53 | 22.76722 | -72.99592 | 35064 ft | 468 kts | 126° |
| 2026-05-03 22:54 | 22.73194 | -72.93660 | 35065 ft | 468 kts | 126° |
| 2026-05-03 22:54 | 22.69667 | -72.87738 | 35067 ft | 468 kts | 126° |
| 2026-05-03 22:55 | 22.66150 | -72.81818 | 35063 ft | 467 kts | 126° |
| 2026-05-03 22:55 | 22.62648 | -72.75948 | 35066 ft | 467 kts | 126° |
| 2026-05-03 22:56 | 22.59115 | -72.70040 | 35067 ft | 467 kts | 126° |
| 2026-05-03 22:56 | 22.55584 | -72.64139 | 35067 ft | 467 kts | 126° |
| 2026-05-03 22:57 | 22.52052 | -72.58247 | 35061 ft | 467 kts | 126° |
| 2026-05-03 22:57 | 22.48523 | -72.52356 | 35063 ft | 467 kts | 126° |
| 2026-05-03 22:58 | 22.44996 | -72.46468 | 35050 ft | 466 kts | 126° |
| 2026-05-03 22:58 | 22.41464 | -72.40584 | 35053 ft | 466 kts | 125° |
| 2026-05-03 22:59 | 22.37933 | -72.34708 | 35058 ft | 466 kts | 125° |
| 2026-05-03 22:59 | 22.34400 | -72.28835 | 35062 ft | 466 kts | 125° |
| 2026-05-03 23:00 | 22.30872 | -72.22980 | 35064 ft | 466 kts | 125° |
| 2026-05-03 23:00 | 22.27362 | -72.17160 | 35065 ft | 465 kts | 125° |
| 2026-05-03 23:01 | 22.23829 | -72.11302 | 35066 ft | 465 kts | 125° |
| 2026-05-03 23:01 | 22.20296 | -72.05457 | 35064 ft | 465 kts | 125° |
| 2026-05-03 23:02 | 22.16751 | -71.99616 | 35064 ft | 465 kts | 125° |
| 2026-05-03 23:02 | 22.13214 | -71.93778 | 35064 ft | 465 kts | 125° |
| 2026-05-03 23:03 | 22.09676 | -71.87941 | 35062 ft | 465 kts | 125° |
| 2026-05-03 23:03 | 22.06130 | -71.82110 | 35048 ft | 465 kts | 125° |
| 2026-05-03 23:04 | 22.02579 | -71.76285 | 35058 ft | 464 kts | 125° |
| 2026-05-03 23:04 | 21.99057 | -71.70504 | 35059 ft | 464 kts | 125° |
| 2026-05-03 23:05 | 21.95519 | -71.64687 | 35063 ft | 464 kts | 125° |
| 2026-05-03 23:05 | 21.91980 | -71.58876 | 35068 ft | 464 kts | 125° |
| 2026-05-03 23:06 | 21.88441 | -71.53066 | 35056 ft | 464 kts | 125° |
| 2026-05-03 23:06 | 21.84894 | -71.47267 | 35059 ft | 463 kts | 125° |
| 2026-05-03 23:07 | 21.81345 | -71.41475 | 35066 ft | 463 kts | 125° |
| 2026-05-03 23:07 | 21.77796 | -71.35683 | 35063 ft | 463 kts | 125° |
| 2026-05-03 23:08 | 21.74273 | -71.29932 | 35061 ft | 463 kts | 125° |
| 2026-05-03 23:08 | 21.70706 | -71.24134 | 35059 ft | 463 kts | 125° |
| 2026-05-03 23:09 | 21.67163 | -71.18376 | 35053 ft | 463 kts | 125° |
| 2026-05-03 23:09 | 21.63602 | -71.12589 | 35058 ft | 463 kts | 124° |
| 2026-05-03 23:10 | 21.60065 | -71.06834 | 35056 ft | 462 kts | 124° |
| 2026-05-03 23:10 | 21.56500 | -71.01055 | 35063 ft | 462 kts | 125° |
| 2026-05-03 23:11 | 21.52906 | -70.95381 | 35065 ft | 462 kts | 126° |
| 2026-05-03 23:11 | 21.49250 | -70.89691 | 35064 ft | 462 kts | 126° |
| 2026-05-03 23:12 | 21.45639 | -70.84040 | 35059 ft | 461 kts | 126° |
| 2026-05-03 23:12 | 21.42017 | -70.78355 | 35058 ft | 461 kts | 126° |
| 2026-05-03 23:13 | 21.38413 | -70.72693 | 35061 ft | 461 kts | 126° |
| 2026-05-03 23:13 | 21.34775 | -70.67001 | 35061 ft | 461 kts | 126° |
| 2026-05-03 23:14 | 21.31740 | -70.62250 | 35062 ft | 461 kts | 126° |
| 2026-05-03 23:14 | 21.27724 | -70.55959 | 35053 ft | 461 kts | 126° |
| 2026-05-03 23:15 | 21.24114 | -70.50323 | 35056 ft | 460 kts | 125° |
| 2026-05-03 23:15 | 21.20511 | -70.44716 | 35062 ft | 460 kts | 125° |
| 2026-05-03 23:16 | 21.17930 | -70.40694 | 35059 ft | 460 kts | 125° |
| 2026-05-03 23:16 | 21.14026 | -70.34604 | 35059 ft | 459 kts | 125° |
| 2026-05-03 23:17 | 21.11013 | -70.29910 | 35062 ft | 459 kts | 125° |
| 2026-05-03 23:17 | 21.07378 | -70.24264 | 35061 ft | 459 kts | 126° |
| 2026-05-03 23:18 | 21.03761 | -70.18647 | 35061 ft | 459 kts | 125° |
| 2026-05-03 23:18 | 21.00135 | -70.13024 | 35060 ft | 459 kts | 125° |
| 2026-05-03 23:19 | 20.96494 | -70.07382 | 35058 ft | 459 kts | 126° |
| 2026-05-03 23:19 | 20.92879 | -70.01788 | 35058 ft | 459 kts | 126° |
| 2026-05-03 23:20 | 20.89256 | -69.96184 | 35055 ft | 459 kts | 125° |
| 2026-05-03 23:20 | 20.85621 | -69.90548 | 35062 ft | 459 kts | 125° |
| 2026-05-03 23:21 | 20.82002 | -69.84952 | 35056 ft | 459 kts | 125° |
| 2026-05-03 23:21 | 20.78365 | -69.79355 | 35060 ft | 458 kts | 125° |
| 2026-05-03 23:22 | 20.72899 | -69.70962 | 35064 ft | 458 kts | 126° |
| 2026-05-03 23:22 | 20.69255 | -69.65360 | 35066 ft | 458 kts | 125° |
| 2026-05-03 23:23 | 20.65641 | -69.59790 | 35062 ft | 458 kts | 125° |
| 2026-05-03 23:23 | 20.61990 | -69.54178 | 35063 ft | 458 kts | 126° |
| 2026-05-03 23:24 | 20.58378 | -69.48630 | 35064 ft | 458 kts | 125° |
| 2026-05-03 23:24 | 20.54735 | -69.43053 | 35060 ft | 458 kts | 126° |
| 2026-05-03 23:25 | 20.51079 | -69.37484 | 35062 ft | 458 kts | 126° |
| 2026-05-03 23:25 | 20.47438 | -69.31922 | 35065 ft | 458 kts | 126° |
| 2026-05-03 23:26 | 20.45147 | -69.28414 | 35063 ft | 458 kts | 125° |
| 2026-05-03 23:26 | 20.44896 | -69.28030 | 35063 ft | 458 kts | 125° |
| 2026-05-03 23:27 | 20.41275 | -69.22474 | 35066 ft | 458 kts | 126° |
| 2026-05-03 23:27 | 20.37637 | -69.16913 | 35066 ft | 458 kts | 126° |
| 2026-05-03 23:28 | 20.33990 | -69.11358 | 35072 ft | 458 kts | 126° |
| 2026-05-03 23:28 | 20.30338 | -69.05801 | 35072 ft | 458 kts | 126° |
| 2026-05-03 23:29 | 20.26693 | -69.00245 | 35071 ft | 458 kts | 126° |
| 2026-05-03 23:29 | 20.23035 | -68.94696 | 35077 ft | 458 kts | 126° |
| 2026-05-03 23:30 | 20.19377 | -68.89148 | 35072 ft | 458 kts | 126° |
| 2026-05-03 23:30 | 20.15746 | -68.83633 | 35076 ft | 458 kts | 126° |
| 2026-05-03 23:31 | 20.12087 | -68.78088 | 35076 ft | 457 kts | 126° |
| 2026-05-03 23:31 | 20.08425 | -68.72552 | 35079 ft | 457 kts | 126° |
| 2026-05-03 23:32 | 20.04841 | -68.66961 | 35078 ft | 457 kts | 124° |
| 2026-05-03 23:32 | 20.01378 | -68.61295 | 35078 ft | 457 kts | 123° |
| 2026-05-03 23:33 | 19.97921 | -68.55616 | 34976 ft | 458 kts | 123° |
| 2026-05-03 23:33 | 19.96187 | -68.52794 | 34744 ft | 454 kts | 124° |
| 2026-05-03 23:33 | 19.94455 | -68.50002 | 34513 ft | 451 kts | 124° |
| 2026-05-03 23:34 | 19.92731 | -68.47238 | 34292 ft | 449 kts | 124° |
| 2026-05-03 23:34 | 19.91001 | -68.44465 | 34063 ft | 446 kts | 124° |
| 2026-05-03 23:34 | 19.89307 | -68.41741 | 33812 ft | 444 kts | 124° |
| 2026-05-03 23:34 | 19.87609 | -68.39009 | 33555 ft | 442 kts | 124° |
| 2026-05-03 23:35 | 19.85912 | -68.36283 | 33299 ft | 439 kts | 124° |
| 2026-05-03 23:35 | 19.84248 | -68.33611 | 33047 ft | 436 kts | 124° |
| 2026-05-03 23:35 | 19.82572 | -68.30918 | 32798 ft | 434 kts | 124° |
| 2026-05-03 23:35 | 19.80921 | -68.28265 | 32552 ft | 431 kts | 124° |
| 2026-05-03 23:36 | 19.79261 | -68.25605 | 32306 ft | 429 kts | 124° |
| 2026-05-03 23:36 | 19.77625 | -68.22986 | 32064 ft | 427 kts | 124° |
| 2026-05-03 23:36 | 19.75988 | -68.20360 | 31823 ft | 425 kts | 124° |
| 2026-05-03 23:36 | 19.74371 | -68.17754 | 31579 ft | 422 kts | 124° |
| 2026-05-03 23:37 | 19.72765 | -68.15169 | 31338 ft | 419 kts | 124° |
| 2026-05-03 23:37 | 19.71150 | -68.12578 | 31105 ft | 417 kts | 124° |
| 2026-05-03 23:37 | 19.69551 | -68.10012 | 30874 ft | 414 kts | 124° |
| 2026-05-03 23:37 | 19.67975 | -68.07486 | 30643 ft | 412 kts | 125° |
| 2026-05-03 23:38 | 19.66408 | -68.04982 | 30419 ft | 409 kts | 124° |
| 2026-05-03 23:38 | 19.64826 | -68.02455 | 30191 ft | 407 kts | 124° |
| 2026-05-03 23:38 | 19.63260 | -67.99951 | 29933 ft | 404 kts | 124° |
| 2026-05-03 23:38 | 19.61713 | -67.97474 | 29665 ft | 402 kts | 124° |
| 2026-05-03 23:39 | 19.60173 | -67.95003 | 29389 ft | 401 kts | 124° |
| 2026-05-03 23:39 | 19.58656 | -67.92574 | 29137 ft | 399 kts | 124° |
| 2026-05-03 23:39 | 19.57131 | -67.90131 | 28834 ft | 396 kts | 125° |
| 2026-05-03 23:39 | 19.55608 | -67.87702 | 28519 ft | 394 kts | 125° |
| 2026-05-03 23:40 | 19.54092 | -67.85286 | 28208 ft | 392 kts | 124° |
| 2026-05-03 23:40 | 19.52579 | -67.82881 | 27910 ft | 391 kts | 125° |
| 2026-05-03 23:40 | 19.51078 | -67.80492 | 27611 ft | 389 kts | 124° |
| 2026-05-03 23:40 | 19.49583 | -67.78112 | 27315 ft | 387 kts | 124° |
| 2026-05-03 23:41 | 19.48096 | -67.75741 | 27023 ft | 386 kts | 124° |
| 2026-05-03 23:41 | 19.46616 | -67.73379 | 26736 ft | 383 kts | 124° |
| 2026-05-03 23:41 | 19.45151 | -67.71048 | 26452 ft | 381 kts | 124° |
| 2026-05-03 23:41 | 19.43675 | -67.68703 | 26164 ft | 380 kts | 124° |
| 2026-05-03 23:42 | 19.42208 | -67.66377 | 25882 ft | 378 kts | 124° |
| 2026-05-03 23:42 | 19.40752 | -67.64067 | 25604 ft | 376 kts | 124° |
| 2026-05-03 23:42 | 19.39303 | -67.61768 | 25328 ft | 375 kts | 124° |
| 2026-05-03 23:42 | 19.37862 | -67.59476 | 25056 ft | 373 kts | 124° |
| 2026-05-03 23:43 | 19.36429 | -67.57194 | 24785 ft | 372 kts | 124° |
| 2026-05-03 23:43 | 19.35000 | -67.54918 | 24525 ft | 370 kts | 123° |
| 2026-05-03 23:43 | 19.33576 | -67.52653 | 24249 ft | 369 kts | 123° |
| 2026-05-03 23:43 | 19.32154 | -67.50399 | 23986 ft | 366 kts | 123° |
| 2026-05-03 23:44 | 19.30739 | -67.48162 | 23715 ft | 365 kts | 123° |
| 2026-05-03 23:44 | 19.29328 | -67.45931 | 23428 ft | 364 kts | 124° |
| 2026-05-03 23:44 | 19.27926 | -67.43711 | 23118 ft | 362 kts | 124° |
| 2026-05-03 23:44 | 19.26546 | -67.41522 | 22814 ft | 362 kts | 124° |
| 2026-05-03 23:45 | 19.25148 | -67.39307 | 22512 ft | 361 kts | 124° |
| 2026-05-03 23:45 | 19.23736 | -67.37072 | 22204 ft | 361 kts | 125° |
| 2026-05-03 23:45 | 19.22359 | -67.34893 | 21910 ft | 361 kts | 124° |
| 2026-05-03 23:45 | 19.20966 | -67.32690 | 21607 ft | 359 kts | 125° |
| 2026-05-03 23:46 | 19.19581 | -67.30494 | 21324 ft | 358 kts | 125° |
| 2026-05-03 23:46 | 19.18201 | -67.28306 | 21035 ft | 358 kts | 125° |
| 2026-05-03 23:46 | 19.16816 | -67.26119 | 20747 ft | 357 kts | 125° |
| 2026-05-03 23:46 | 19.15439 | -67.23945 | 20464 ft | 355 kts | 125° |
| 2026-05-03 23:47 | 19.14067 | -67.21777 | 20181 ft | 355 kts | 125° |
| 2026-05-03 23:47 | 19.12695 | -67.19606 | 19899 ft | 355 kts | 126° |
| 2026-05-03 23:47 | 19.11323 | -67.17440 | 19610 ft | 354 kts | 126° |
| 2026-05-03 23:47 | 19.09952 | -67.15282 | 19343 ft | 353 kts | 126° |
| 2026-05-03 23:48 | 19.08582 | -67.13130 | 19077 ft | 352 kts | 126° |
| 2026-05-03 23:48 | 19.07217 | -67.10981 | 18809 ft | 352 kts | 126° |
| 2026-05-03 23:48 | 19.05856 | -67.08835 | 18540 ft | 351 kts | 126° |
| 2026-05-03 23:48 | 19.04494 | -67.06694 | 18268 ft | 351 kts | 127° |
| 2026-05-03 23:49 | 19.03141 | -67.04570 | 17957 ft | 349 kts | 126° |
| 2026-05-03 23:49 | 19.01790 | -67.02447 | 17644 ft | 347 kts | 126° |
| 2026-05-03 23:49 | 19.00450 | -67.00335 | 17346 ft | 345 kts | 126° |
| 2026-05-03 23:49 | 18.99118 | -66.98231 | 17048 ft | 343 kts | 126° |
| 2026-05-03 23:50 | 18.97817 | -66.96178 | 16754 ft | 340 kts | 126° |
| 2026-05-03 23:50 | 18.96933 | -66.94784 | 16553 ft | 339 kts | 126° |
| 2026-05-03 23:50 | 18.95198 | -66.92058 | 16168 ft | 336 kts | 125° |
| 2026-05-03 23:50 | 18.93892 | -66.90014 | 15879 ft | 334 kts | 125° |
| 2026-05-03 23:51 | 18.92607 | -66.88001 | 15582 ft | 331 kts | 125° |
| 2026-05-03 23:51 | 18.91324 | -66.85984 | 15303 ft | 329 kts | 126° |
| 2026-05-03 23:51 | 18.90043 | -66.83972 | 15024 ft | 329 kts | 124° |
| 2026-05-03 23:51 | 18.88768 | -66.81969 | 14744 ft | 326 kts | 125° |
| 2026-05-03 23:52 | 18.87503 | -66.79987 | 14468 ft | 324 kts | 125° |
| 2026-05-03 23:52 | 18.86243 | -66.78014 | 14199 ft | 323 kts | 124° |
| 2026-05-03 23:52 | 18.84990 | -66.76050 | 13926 ft | 320 kts | 124° |
| 2026-05-03 23:52 | 18.83752 | -66.74112 | 13632 ft | 318 kts | 124° |
| 2026-05-03 23:53 | 18.82535 | -66.72210 | 13330 ft | 315 kts | 124° |
| 2026-05-03 23:53 | 18.81296 | -66.70271 | 13029 ft | 313 kts | 124° |
| 2026-05-03 23:53 | 18.80099 | -66.68401 | 12732 ft | 311 kts | 124° |
| 2026-05-03 23:53 | 18.78876 | -66.66527 | 12434 ft | 309 kts | 125° |
| 2026-05-03 23:54 | 18.77659 | -66.64660 | 12145 ft | 307 kts | 124° |
| 2026-05-03 23:54 | 18.76470 | -66.62789 | 11855 ft | 305 kts | 123° |
| 2026-05-03 23:54 | 18.75189 | -66.61010 | 11562 ft | 303 kts | 134° |
| 2026-05-03 23:54 | 18.73710 | -66.59463 | 11283 ft | 301 kts | 136° |
| 2026-05-03 23:55 | 18.72200 | -66.57943 | 11001 ft | 299 kts | 136° |
| 2026-05-03 23:55 | 18.70689 | -66.56435 | 10724 ft | 297 kts | 136° |
| 2026-05-03 23:55 | 18.69328 | -66.54816 | 10442 ft | 294 kts | 128° |
| 2026-05-03 23:55 | 18.68060 | -66.53132 | 10169 ft | 292 kts | 127° |
| 2026-05-03 23:56 | 18.66816 | -66.51452 | 9891 ft | 290 kts | 127° |
| 2026-05-03 23:56 | 18.65578 | -66.49772 | 9585 ft | 289 kts | 127° |
| 2026-05-03 23:56 | 18.64348 | -66.48104 | 9287 ft | 287 kts | 127° |
| 2026-05-03 23:56 | 18.63128 | -66.46452 | 8998 ft | 284 kts | 127° |
| 2026-05-03 23:57 | 18.61916 | -66.44816 | 8698 ft | 282 kts | 128° |
| 2026-05-03 23:57 | 18.60703 | -66.43185 | 8360 ft | 282 kts | 128° |
| 2026-05-03 23:57 | 18.59492 | -66.41555 | 7947 ft | 283 kts | 128° |
| 2026-05-03 23:57 | 18.58276 | -66.39919 | 7519 ft | 285 kts | 128° |
| 2026-05-03 23:58 | 18.57052 | -66.38276 | 7094 ft | 284 kts | 128° |
| 2026-05-03 23:58 | 18.55850 | -66.36666 | 6676 ft | 275 kts | 127° |
| 2026-05-03 23:58 | 18.54678 | -66.35097 | 6245 ft | 269 kts | 127° |
| 2026-05-03 23:58 | 18.53511 | -66.33531 | 5805 ft | 273 kts | 127° |
| 2026-05-03 23:59 | 18.52348 | -66.31968 | 5368 ft | 270 kts | 127° |
| 2026-05-03 23:59 | 18.51197 | -66.30422 | 4935 ft | 266 kts | 127° |
| 2026-05-03 23:59 | 18.50068 | -66.28907 | 4484 ft | 263 kts | 128° |
| 2026-05-03 23:59 | 18.48943 | -66.27398 | 4058 ft | 262 kts | 127° |
| 2026-05-04 00:00 | 18.47840 | -66.25919 | 3608 ft | 259 kts | 128° |
| 2026-05-04 00:00 | 18.46733 | -66.24434 | 3115 ft | 256 kts | 128° |
| 2026-05-04 00:00 | 18.45646 | -66.22979 | 2654 ft | 252 kts | 128° |
| 2026-05-04 00:00 | 18.44603 | -66.21581 | 2504 ft | 231 kts | 128° |
| 2026-05-04 00:01 | 18.43664 | -66.20322 | 2504 ft | 207 kts | 127° |
| 2026-05-04 00:01 | 18.43010 | -66.19018 | 2521 ft | 203 kts | 99° |
| 2026-05-04 00:01 | 18.43091 | -66.17541 | 2509 ft | 205 kts | 83° |
| 2026-05-04 00:01 | 18.43225 | -66.16052 | 2518 ft | 204 kts | 89° |
| 2026-05-04 00:02 | 18.43272 | -66.14612 | 2537 ft | 190 kts | 90° |
| 2026-05-04 00:02 | 18.43337 | -66.13240 | 2267 ft | 189 kts | 90° |
| 2026-05-04 00:02 | 18.43365 | -66.11851 | 1943 ft | 190 kts | 91° |
| 2026-05-04 00:02 | 18.43371 | -66.10468 | 1642 ft | 181 kts | 91° |
| 2026-05-04 00:03 | 18.43372 | -66.09231 | 1449 ft | 157 kts | 92° |
| 2026-05-04 00:03 | 18.43371 | -66.08134 | 1230 ft | 142 kts | 92° |
| 2026-05-04 00:03 | 18.43368 | -66.07118 | 1068 ft | 137 kts | 91° |
| 2026-05-04 00:03 | 18.43380 | -66.06148 | 868 ft | 132 kts | 90° |
| 2026-05-04 00:04 | 18.43362 | -66.05165 | 667 ft | 131 kts | 90° |
| 2026-05-04 00:04 | 18.43355 | -66.04530 | 539 ft | 130 kts | 90° |
| 2026-05-04 00:04 | 18.43357 | -66.03565 | 353 ft | 131 kts | 89° |
| 2026-05-04 00:04 | 18.43367 | -66.02610 | 205 ft | 131 kts | 90° |
| 2026-05-04 00:05 | 18.43360 | -66.01653 | 47 ft | 131 kts | 90° |
| 2026-05-04 00:05 | 18.43355 | -66.00531 | -47 ft | 74 kts | 90° |
| 2026-05-04 00:05 | 18.43354 | -66.00295 | -47 ft | 34 kts | 90° |
| 2026-05-04 00:05 | 18.43352 | -66.00070 | -32 ft | 21 kts | 90° |
| 2026-05-04 00:06 | 18.43383 | -65.99969 | -35 ft | 15 kts | 60° |
| 2026-05-04 00:06 | 18.43428 | -65.99896 | -44 ft | 7 kts | 21° |
| 2026-05-04 00:06 | 18.43464 | -65.99956 | -36 ft | 13 kts | 278° |
| 2026-05-04 00:06 | 18.43465 | -66.00031 | -29 ft | 11 kts | 270° |
| 2026-05-04 00:07 | 18.43467 | -66.00132 | -31 ft | 16 kts | 271° |
| 2026-05-04 00:07 | 18.43467 | -66.00232 | -32 ft | 11 kts | 270° |
| 2026-05-04 00:07 | 18.43467 | -66.00325 | -31 ft | 14 kts | 270° |
| 2026-05-04 00:07 | 18.43466 | -66.00432 | -29 ft | 14 kts | 269° |
| 2026-05-04 00:08 | 18.43466 | -66.00494 | -28 ft | 9 kts | 270° |
| 2026-05-04 00:08 | 18.43466 | -66.00547 | -28 ft | 7 kts | 270° |
| 2026-05-04 00:08 | 18.43466 | -66.00569 | -28 ft | 2 kts | 270° |
| 2026-05-04 00:08 | 18.43466 | -66.00615 | -28 ft | 8 kts | 270° |
| 2026-05-04 00:09 | 18.43466 | -66.00632 | -28 ft | 6 kts | 270° |
| 2026-05-04 00:09 | 18.43492 | -66.00654 | -27 ft | 4 kts | 6° |
| 2026-05-04 00:09 | 18.43517 | -66.00653 | -33 ft | 1 kts | 3° |
| 2026-05-04 00:09 | 18.43526 | -66.00653 | -31 ft | 2 kts | 360° |
| 2026-05-04 00:10 | 18.43538 | -66.00653 | -43 ft | 2 kts | 359° |
| 2026-05-04 00:10 | 18.43550 | -66.00653 | -41 ft | 0 kts | 360° |